createdAt,value
2018-04-30T00:00:32.634Z,77.70
2018-04-30T00:03:05.922Z,76.50
2018-04-30T00:05:38.789Z,75.30
2018-04-30T00:08:11.690Z,74.50
2018-04-30T00:10:44.583Z,75.30
2018-04-30T00:13:17.764Z,74.80
2018-04-30T00:15:51.674Z,73.50
2018-04-30T00:18:24.571Z,73.50
2018-04-30T00:20:58.269Z,73.00
2018-04-30T00:23:31.153Z,72.90
2018-04-30T00:26:04.891Z,72.00
2018-04-30T00:28:37.412Z,71.90
2018-04-30T00:31:10.910Z,71.50
2018-04-30T00:33:43.960Z,71.00
2018-04-30T00:36:16.710Z,70.30
2018-04-30T00:38:49.350Z,70.60
2018-04-30T00:41:23.099Z,70.00
2018-04-30T00:43:55.977Z,70.00
2018-04-30T00:46:29.064Z,70.00
2018-04-30T00:49:02.864Z,69.60
2018-04-30T00:51:35.971Z,69.50
2018-04-30T00:54:08.908Z,69.60
2018-04-30T00:56:41.873Z,69.20
2018-04-30T00:59:14.327Z,69.60
2018-04-30T01:01:47.893Z,70.60
2018-04-30T01:04:20.608Z,70.00
2018-04-30T01:06:53.397Z,69.90
2018-04-30T01:09:26.044Z,70.00
2018-04-30T01:11:58.938Z,70.30
2018-04-30T01:14:31.704Z,70.20
2018-04-30T01:17:04.412Z,69.80
2018-04-30T01:19:37.823Z,69.60
2018-04-30T01:22:11.075Z,69.50
2018-04-30T01:24:43.974Z,69.80
2018-04-30T01:27:17.155Z,69.60
2018-04-30T01:29:50.140Z,69.50
2018-04-30T01:32:22.817Z,69.40
2018-04-30T01:34:55.513Z,69.50
2018-04-30T01:37:28.273Z,69.20
2018-04-30T01:40:01.433Z,69.70
2018-04-30T01:42:34.149Z,69.10
2018-04-30T01:45:06.833Z,69.50
2018-04-30T01:47:39.477Z,69.60
2018-04-30T01:50:13.024Z,69.50
2018-04-30T01:52:46.345Z,69.50
2018-04-30T01:55:19.084Z,69.50
2018-04-30T01:57:52.172Z,70.50
2018-04-30T02:00:25.023Z,69.90
2018-04-30T02:02:57.584Z,70.10
2018-04-30T02:05:30.328Z,70.20
2018-04-30T02:08:02.922Z,70.50
2018-04-30T02:10:35.873Z,70.40
2018-04-30T02:13:08.643Z,70.30
2018-04-30T02:15:41.234Z,69.90
2018-04-30T02:18:15.243Z,70.10
2018-04-30T02:20:48.860Z,70.50
2018-04-30T02:23:21.841Z,70.50
2018-04-30T02:25:55.125Z,71.10
2018-04-30T02:28:27.785Z,71.60
2018-04-30T02:31:00.664Z,72.00
2018-04-30T02:33:33.928Z,73.10
2018-04-30T02:36:06.828Z,73.10
2018-04-30T02:38:39.614Z,73.20
2018-04-30T02:41:12.739Z,73.90
2018-04-30T02:43:46.138Z,74.50
2018-04-30T02:46:19.442Z,74.50
2018-04-30T02:48:52.168Z,74.90
2018-04-30T02:51:25.094Z,75.60
2018-04-30T02:53:58.119Z,75.70
2018-04-30T02:56:31.986Z,77.30
2018-04-30T02:59:04.747Z,76.90
2018-04-30T03:01:37.860Z,76.80
2018-04-30T03:04:10.744Z,77.60
2018-04-30T03:06:43.629Z,78.00
2018-04-30T03:09:17.740Z,78.60
2018-04-30T03:11:50.825Z,78.70
2018-04-30T03:14:23.452Z,79.20
2018-04-30T03:16:56.187Z,79.40
2018-04-30T03:19:29.180Z,79.60
2018-04-30T03:22:02.176Z,79.40
2018-04-30T03:24:36.183Z,79.40
2018-04-30T03:27:08.939Z,80.20
2018-04-30T03:29:42.249Z,80.90
2018-04-30T03:32:15.137Z,81.00
2018-04-30T03:34:48.838Z,82.30
2018-04-30T03:37:21.739Z,81.50
2018-04-30T03:39:55.255Z,82.10
2018-04-30T03:42:28.417Z,82.00
2018-04-30T03:45:02.089Z,82.40
2018-04-30T03:47:35.614Z,82.80
2018-04-30T03:50:08.254Z,82.70
2018-04-30T03:52:41.179Z,82.90
2018-04-30T03:55:13.859Z,82.70
2018-04-30T03:57:46.762Z,83.00
2018-04-30T04:00:32.009Z,82.80
2018-04-30T04:03:17.744Z,83.20
2018-04-30T04:06:15.495Z,83.20
2018-04-30T04:08:48.656Z,83.40
2018-04-30T04:11:21.742Z,83.60
2018-04-30T04:13:54.948Z,83.90
2018-04-30T04:16:28.517Z,84.60
2018-04-30T04:19:01.349Z,84.50
2018-04-30T04:21:35.152Z,85.60
2018-04-30T04:24:07.709Z,85.60
2018-04-30T04:26:41.101Z,85.70
2018-04-30T04:29:14.904Z,86.30
2018-04-30T04:31:48.308Z,86.30
2018-04-30T04:34:21.195Z,86.50
2018-04-30T04:36:54.715Z,86.30
2018-04-30T04:39:27.574Z,86.30
2018-04-30T04:42:01.241Z,86.10
2018-04-30T04:44:34.697Z,86.00
2018-04-30T04:47:07.655Z,86.00
2018-04-30T04:49:41.145Z,86.30
2018-04-30T04:52:13.937Z,86.40
2018-04-30T04:54:47.433Z,86.40
2018-04-30T04:57:19.899Z,86.40
2018-04-30T04:59:53.758Z,86.00
2018-04-30T05:02:27.089Z,85.70
2018-04-30T05:04:59.673Z,85.70
2018-04-30T05:07:32.474Z,85.00
2018-04-30T05:10:06.059Z,85.40
2018-04-30T05:12:38.853Z,85.30
2018-04-30T05:15:11.645Z,85.70
2018-04-30T05:17:44.631Z,85.30
2018-04-30T05:20:18.245Z,84.30
2018-04-30T05:22:52.066Z,84.20
2018-04-30T05:25:24.807Z,84.20
2018-04-30T05:27:58.182Z,83.20
2018-04-30T05:30:31.196Z,83.20
2018-04-30T05:33:03.847Z,83.20
2018-04-30T05:35:36.552Z,83.40
2018-04-30T05:38:09.336Z,82.30
2018-04-30T05:40:42.123Z,82.40
2018-04-30T05:43:16.129Z,81.40
2018-04-30T05:45:48.649Z,80.50
2018-04-30T05:48:21.600Z,79.90
2018-04-30T05:50:54.790Z,79.40
2018-04-30T05:53:27.661Z,79.20
2018-04-30T05:56:00.469Z,78.50
2018-04-30T05:58:33.333Z,77.80
2018-04-30T06:01:05.919Z,74.60
2018-04-30T06:03:39.000Z,73.60
2018-04-30T06:06:12.362Z,72.50
2018-04-30T06:08:45.276Z,72.90
2018-04-30T06:11:18.268Z,71.50
2018-04-30T06:13:51.455Z,70.50
2018-04-30T06:16:24.043Z,69.50
2018-04-30T06:18:57.123Z,69.80
2018-04-30T06:21:37.269Z,70.90
2018-04-30T06:24:10.056Z,70.80
2018-04-30T06:26:43.168Z,71.90
2018-04-30T06:29:16.123Z,70.70
2018-04-30T06:31:49.119Z,70.00
2018-04-30T06:34:21.812Z,70.30
2018-04-30T06:36:54.576Z,70.80
2018-04-30T06:39:27.205Z,71.30
2018-04-30T06:42:00.180Z,70.80
2018-04-30T06:44:33.046Z,71.00
2018-04-30T06:47:05.883Z,70.60
2018-04-30T06:49:38.759Z,70.20
2018-04-30T06:52:12.265Z,71.00
2018-04-30T06:54:44.985Z,71.00
2018-04-30T06:57:18.068Z,70.80
2018-04-30T06:59:51.547Z,71.50
2018-04-30T07:02:24.395Z,71.40
2018-04-30T07:04:57.180Z,70.60
2018-04-30T07:07:30.253Z,70.80
2018-04-30T07:10:03.105Z,71.40
2018-04-30T07:12:35.936Z,71.00
2018-04-30T07:15:08.796Z,71.90
2018-04-30T07:17:41.759Z,72.30
2018-04-30T07:20:14.677Z,72.90
2018-04-30T07:22:47.940Z,72.10
2018-04-30T07:25:21.068Z,73.00
2018-04-30T07:27:54.671Z,73.10
2018-04-30T07:30:27.988Z,72.50
2018-04-30T07:33:01.111Z,71.80
2018-04-30T07:35:34.814Z,70.70
2018-04-30T07:38:07.296Z,70.70
2018-04-30T07:40:40.241Z,70.40
2018-04-30T07:43:12.744Z,69.80
2018-04-30T07:45:45.527Z,68.90
2018-04-30T07:48:18.210Z,68.70
2018-04-30T07:50:51.118Z,69.20
2018-04-30T07:53:25.515Z,69.10
2018-04-30T07:55:58.812Z,69.00
2018-04-30T07:58:31.318Z,69.60
2018-04-30T08:01:04.532Z,70.00
2018-04-30T08:03:37.771Z,69.60
2018-04-30T08:06:10.485Z,69.30
2018-04-30T08:08:43.128Z,68.30
2018-04-30T08:11:16.127Z,68.20
2018-04-30T08:13:48.795Z,68.50
2018-04-30T08:16:21.425Z,67.40
2018-04-30T08:18:53.982Z,68.80
2018-04-30T08:21:27.267Z,67.80
2018-04-30T08:24:00.128Z,67.00
2018-04-30T08:26:33.747Z,67.10
2018-04-30T08:29:06.731Z,67.10
2018-04-30T08:31:39.503Z,67.30
2018-04-30T08:34:12.627Z,66.60
2018-04-30T08:36:45.756Z,66.60
2018-04-30T08:39:18.562Z,65.70
2018-04-30T08:41:56.630Z,65.00
2018-04-30T08:44:29.375Z,64.80
2018-04-30T08:47:02.126Z,65.40
2018-04-30T08:49:34.911Z,64.50
2018-04-30T08:52:08.723Z,65.20
2018-04-30T08:54:41.775Z,65.20
2018-04-30T08:57:14.440Z,64.70
2018-04-30T08:59:48.290Z,64.80
2018-04-30T09:02:21.806Z,64.70
2018-04-30T09:04:54.964Z,64.70
2018-04-30T09:07:28.471Z,64.40
2018-04-30T09:10:01.362Z,63.70
2018-04-30T09:12:34.356Z,64.50
2018-04-30T09:15:07.569Z,66.80
2018-04-30T09:17:40.334Z,65.30
2018-04-30T09:20:13.122Z,65.00
2018-04-30T09:22:46.962Z,65.10
2018-04-30T09:25:19.650Z,64.30
2018-04-30T09:27:52.305Z,63.40
2018-04-30T09:30:25.462Z,63.00
2018-04-30T09:32:58.551Z,62.70
2018-04-30T09:35:37.185Z,62.90
2018-04-30T09:38:10.011Z,62.90
2018-04-30T09:40:42.832Z,62.40
2018-04-30T09:43:15.565Z,61.80
2018-04-30T09:45:48.303Z,61.60
2018-04-30T09:48:21.756Z,62.10
2018-04-30T09:50:54.608Z,62.10
2018-04-30T09:53:27.255Z,61.90
2018-04-30T09:56:00.049Z,61.80
2018-04-30T09:58:33.039Z,61.60
2018-04-30T10:01:06.830Z,59.50
2018-04-30T10:03:40.346Z,58.70
2018-04-30T10:06:18.153Z,58.70
2018-04-30T10:08:51.121Z,58.60
2018-04-30T10:11:24.338Z,57.80
2018-04-30T10:13:56.953Z,59.00
2018-04-30T10:16:29.837Z,57.90
2018-04-30T10:19:02.469Z,57.70
2018-04-30T10:21:35.729Z,58.20
2018-04-30T10:24:08.966Z,57.90
2018-04-30T10:26:41.849Z,57.70
2018-04-30T10:29:14.561Z,57.70
2018-04-30T10:31:47.224Z,58.80
2018-04-30T10:34:21.316Z,58.80
2018-04-30T10:36:54.210Z,58.70
2018-04-30T10:39:27.409Z,58.60
2018-04-30T10:42:00.331Z,58.00
2018-04-30T10:44:33.230Z,57.30
2018-04-30T10:47:05.911Z,57.40
2018-04-30T10:49:38.813Z,56.80
2018-04-30T10:52:11.893Z,57.50
2018-04-30T10:54:44.680Z,56.50
2018-04-30T10:57:17.207Z,57.90
2018-04-30T10:59:50.257Z,57.60
2018-04-30T11:02:22.760Z,56.60
2018-04-30T11:04:55.562Z,56.30
2018-04-30T11:07:28.279Z,56.50
2018-04-30T11:10:02.185Z,57.70
2018-04-30T11:12:35.275Z,57.60
2018-04-30T11:15:08.506Z,57.80
2018-04-30T11:17:41.862Z,58.60
2018-04-30T11:20:14.948Z,58.70
2018-04-30T11:22:48.650Z,56.60
2018-04-30T11:25:21.647Z,56.60
2018-04-30T11:27:54.192Z,52.50
2018-04-30T11:30:27.084Z,52.00
2018-04-30T11:33:00.288Z,52.10
2018-04-30T11:35:33.019Z,52.70
2018-04-30T11:38:06.080Z,51.90
2018-04-30T11:40:39.849Z,52.10
2018-04-30T11:43:12.646Z,52.00
2018-04-30T11:45:46.323Z,53.20
2018-04-30T11:48:19.237Z,52.90
2018-04-30T11:50:51.917Z,55.10
2018-04-30T11:53:25.328Z,51.90
2018-04-30T11:55:58.251Z,51.50
2018-04-30T11:58:31.316Z,51.40
2018-04-30T12:01:05.577Z,49.40
2018-04-30T12:03:38.387Z,49.40
2018-04-30T12:06:11.278Z,48.60
2018-04-30T12:08:44.682Z,49.30
2018-04-30T12:11:19.292Z,49.80
2018-04-30T12:13:52.277Z,49.80
2018-04-30T12:16:25.696Z,48.80
2018-04-30T12:18:58.459Z,48.70
2018-04-30T12:21:31.939Z,49.50
2018-04-30T12:24:04.787Z,49.50
2018-04-30T12:26:37.828Z,50.90
2018-04-30T12:29:10.821Z,50.00
2018-04-30T12:31:43.800Z,48.10
2018-04-30T12:34:16.594Z,48.00
2018-04-30T12:36:49.667Z,45.90
2018-04-30T12:39:22.332Z,46.20
2018-04-30T12:41:55.538Z,45.30
2018-04-30T12:44:28.752Z,46.30
2018-04-30T12:47:01.493Z,43.70
2018-04-30T12:49:34.472Z,43.80
2018-04-30T12:52:07.943Z,46.10
2018-04-30T12:54:41.043Z,46.10
2018-04-30T12:57:14.425Z,45.90
2018-04-30T12:59:47.197Z,45.90
2018-04-30T13:02:20.024Z,45.00
2018-04-30T13:04:53.815Z,46.50
2018-04-30T13:07:27.427Z,46.10
2018-04-30T13:10:00.189Z,46.10
2018-04-30T13:12:34.619Z,45.60
2018-04-30T13:15:07.743Z,45.50
2018-04-30T13:17:40.772Z,46.00
2018-04-30T13:20:13.627Z,45.70
2018-04-30T13:22:47.229Z,45.60
2018-04-30T13:25:20.616Z,45.60
2018-04-30T13:27:54.426Z,46.40
2018-04-30T13:30:27.305Z,46.40
2018-04-30T13:33:00.532Z,47.10
2018-04-30T13:35:33.411Z,47.40
2018-04-30T13:38:06.450Z,48.50
2018-04-30T13:40:39.046Z,47.70
2018-04-30T13:43:12.382Z,47.20
2018-04-30T13:45:45.085Z,47.20
2018-04-30T13:48:17.936Z,47.80
2018-04-30T13:50:50.705Z,48.60
2018-04-30T13:53:24.495Z,49.50
2018-04-30T13:55:57.782Z,49.50
2018-04-30T13:58:30.472Z,48.00
2018-04-30T14:01:03.500Z,45.90
2018-04-30T14:03:36.319Z,46.10
2018-04-30T14:06:09.269Z,45.80
2018-04-30T14:08:42.561Z,45.00
2018-04-30T14:11:15.701Z,45.20
2018-04-30T14:13:48.664Z,43.80
2018-04-30T14:16:21.791Z,44.30
2018-04-30T14:18:55.789Z,44.50
2018-04-30T14:21:28.316Z,44.40
2018-04-30T14:24:01.015Z,44.90
2018-04-30T14:26:33.655Z,45.30
2018-04-30T14:29:06.320Z,46.30
2018-04-30T14:31:40.169Z,48.40
2018-04-30T14:34:12.631Z,48.30
2018-04-30T14:36:45.691Z,47.40
2018-04-30T14:39:19.178Z,48.50
2018-04-30T14:41:52.380Z,48.30
2018-04-30T14:44:25.792Z,47.50
2018-04-30T14:46:59.462Z,45.90
2018-04-30T14:49:32.247Z,45.80
2018-04-30T14:52:05.026Z,45.20
2018-04-30T14:54:37.599Z,45.10
2018-04-30T14:57:10.522Z,45.10
2018-04-30T14:59:43.867Z,44.60
2018-04-30T15:02:16.871Z,45.10
2018-04-30T15:04:50.570Z,44.10
2018-04-30T15:07:23.262Z,43.50
2018-04-30T15:09:56.450Z,43.90
2018-04-30T15:12:30.198Z,45.40
2018-04-30T15:15:03.209Z,44.80
2018-04-30T15:17:36.050Z,45.30
2018-04-30T15:20:08.777Z,46.40
2018-04-30T15:22:41.434Z,45.70
2018-04-30T15:25:15.534Z,44.10
2018-04-30T15:27:49.315Z,45.50
2018-04-30T15:30:22.460Z,45.50
2018-04-30T15:32:55.276Z,43.40
2018-04-30T15:35:27.954Z,42.60
2018-04-30T15:38:01.665Z,40.20
2018-04-30T15:40:34.484Z,39.90
2018-04-30T15:43:08.552Z,41.20
2018-04-30T15:45:41.283Z,41.10
2018-04-30T15:48:15.391Z,38.40
2018-04-30T15:50:48.100Z,38.40
2018-04-30T15:53:20.977Z,38.40
2018-04-30T15:55:54.013Z,37.50
2018-04-30T15:58:27.915Z,38.50
2018-04-30T16:01:00.711Z,39.60
2018-04-30T16:03:34.299Z,38.60
2018-04-30T16:06:07.269Z,38.40
2018-04-30T16:08:40.775Z,38.40
2018-04-30T16:11:13.891Z,39.40
2018-04-30T16:13:46.805Z,40.70
2018-04-30T16:16:19.576Z,41.50
2018-04-30T16:18:52.404Z,43.00
2018-04-30T16:21:25.135Z,44.10
2018-04-30T16:23:57.784Z,44.70
2018-04-30T16:26:30.856Z,44.10
2018-04-30T16:29:04.156Z,43.80
2018-04-30T16:31:37.487Z,44.70
2018-04-30T16:34:10.435Z,45.50
2018-04-30T16:36:43.085Z,45.90
2018-04-30T16:39:15.791Z,46.40
2018-04-30T16:41:48.897Z,46.70
2018-04-30T16:44:21.571Z,47.10
2018-04-30T16:46:54.780Z,47.20
2018-04-30T16:49:27.533Z,47.20
2018-04-30T16:52:00.526Z,47.60
2018-04-30T16:54:34.055Z,50.70
2018-04-30T16:57:07.021Z,50.60
2018-04-30T16:59:40.139Z,52.60
2018-04-30T17:02:13.184Z,54.40
2018-04-30T17:04:45.988Z,55.20
2018-04-30T17:07:19.431Z,55.20
2018-04-30T17:09:52.364Z,55.30
2018-04-30T17:12:25.106Z,57.40
2018-04-30T17:14:58.458Z,58.20
2018-04-30T17:17:31.524Z,59.20
2018-04-30T17:20:04.381Z,59.90
2018-04-30T17:22:37.282Z,60.50
2018-04-30T17:25:10.090Z,59.80
2018-04-30T17:27:43.598Z,60.60
2018-04-30T17:30:16.658Z,60.40
2018-04-30T17:32:49.377Z,59.90
2018-04-30T17:35:22.540Z,60.40
2018-04-30T17:37:55.499Z,60.20
2018-04-30T17:40:28.621Z,60.20
2018-04-30T17:43:01.734Z,58.10
2018-04-30T17:45:34.443Z,58.10
2018-04-30T17:48:14.280Z,57.20
2018-04-30T17:50:48.377Z,55.80
2018-04-30T17:53:21.285Z,55.70
2018-04-30T17:55:54.871Z,56.50
2018-04-30T17:58:28.112Z,56.40
2018-04-30T18:01:00.959Z,55.20
2018-04-30T18:03:34.596Z,54.20
2018-04-30T18:06:07.995Z,54.10
2018-04-30T18:08:40.777Z,54.30
2018-04-30T18:11:13.632Z,53.60
2018-04-30T18:13:47.260Z,53.00
2018-04-30T18:16:20.457Z,53.00
2018-04-30T18:18:54.181Z,53.10
2018-04-30T18:21:27.272Z,52.90
2018-04-30T18:23:59.972Z,53.30
2018-04-30T18:26:33.943Z,53.80
2018-04-30T18:29:07.058Z,53.70
2018-04-30T18:31:43.880Z,53.90
2018-04-30T18:34:17.167Z,54.80
2018-04-30T18:36:50.893Z,53.80
2018-04-30T18:39:23.681Z,54.30
2018-04-30T18:41:57.600Z,55.30
2018-04-30T18:44:30.798Z,54.80
2018-04-30T18:47:04.655Z,55.00
2018-04-30T18:49:37.492Z,55.00
2018-04-30T18:52:10.657Z,56.10
2018-04-30T18:54:43.646Z,55.70
2018-04-30T18:57:16.743Z,55.30
2018-04-30T18:59:49.531Z,56.40
2018-04-30T19:02:22.909Z,54.70
2018-04-30T19:04:56.071Z,55.50
2018-04-30T19:07:29.195Z,54.90
2018-04-30T19:10:02.251Z,56.00
2018-04-30T19:12:35.886Z,55.40
2018-04-30T19:15:09.090Z,55.40
2018-04-30T19:17:42.163Z,56.10
2018-04-30T19:20:15.447Z,56.10
2018-04-30T19:22:48.585Z,57.50
2018-04-30T19:25:21.435Z,57.00
2018-04-30T19:27:54.558Z,57.20
2018-04-30T19:30:27.691Z,57.70
2018-04-30T19:33:01.099Z,58.20
2018-04-30T19:35:34.624Z,59.00
2018-04-30T19:38:07.709Z,58.90
2018-04-30T19:40:40.831Z,59.60
2018-04-30T19:43:13.772Z,60.70
2018-04-30T19:45:47.017Z,60.20
2018-04-30T19:48:20.959Z,60.90
2018-04-30T19:50:53.808Z,60.90
2018-04-30T19:53:26.729Z,61.80
2018-04-30T19:55:59.900Z,61.80
2018-04-30T19:58:33.046Z,62.50
2018-04-30T20:01:06.483Z,62.90
2018-04-30T20:03:39.223Z,62.90
2018-04-30T20:06:12.294Z,63.90
2018-04-30T20:08:45.479Z,64.50
2018-04-30T20:11:17.956Z,64.80
2018-04-30T20:13:50.747Z,63.80
2018-04-30T20:16:23.843Z,63.90
2018-04-30T20:18:56.822Z,63.50
2018-04-30T20:21:30.519Z,64.90
2018-04-30T20:24:03.710Z,64.20
2018-04-30T20:26:36.511Z,65.20
2018-04-30T20:29:09.389Z,64.90
2018-04-30T20:31:42.669Z,65.60
2018-04-30T20:34:15.257Z,65.70
2018-04-30T20:36:48.455Z,63.00
2018-04-30T20:39:21.341Z,62.20
2018-04-30T20:41:54.114Z,59.80
2018-04-30T20:44:27.329Z,57.90
2018-04-30T20:47:00.025Z,57.20
2018-04-30T20:49:33.168Z,56.10
2018-04-30T20:52:06.227Z,54.30
2018-04-30T20:54:39.447Z,54.40
2018-04-30T20:57:12.639Z,52.90
2018-04-30T20:59:46.057Z,52.80
2018-04-30T21:02:19.201Z,52.60
2018-04-30T21:04:52.118Z,51.50
2018-04-30T21:07:25.110Z,51.70
2018-04-30T21:09:57.712Z,51.00
2018-04-30T21:12:30.664Z,50.80
2018-04-30T21:15:04.087Z,51.30
2018-04-30T21:17:36.872Z,51.20
2018-04-30T21:20:10.508Z,51.60
2018-04-30T21:22:43.851Z,51.60
2018-04-30T21:25:16.735Z,51.30
2018-04-30T21:27:49.513Z,51.50
2018-04-30T21:30:22.897Z,51.80
2018-04-30T21:32:55.419Z,51.50
2018-04-30T21:35:28.750Z,51.70
2018-04-30T21:38:01.551Z,51.60
2018-04-30T21:40:34.697Z,51.00
2018-04-30T21:43:07.734Z,52.00
2018-04-30T21:45:40.616Z,52.20
2018-04-30T21:48:13.601Z,52.30
2018-04-30T21:50:46.691Z,52.90
2018-04-30T21:53:20.251Z,51.60
2018-04-30T21:55:54.196Z,53.00
2018-04-30T21:58:26.901Z,53.00
2018-04-30T22:00:59.965Z,52.10
2018-04-30T22:03:38.818Z,52.30
2018-04-30T22:06:12.588Z,51.40
2018-04-30T22:08:45.332Z,51.40
2018-04-30T22:11:18.163Z,52.10
2018-04-30T22:13:51.993Z,52.20
2018-04-30T22:16:24.958Z,52.10
2018-04-30T22:18:58.969Z,51.50
2018-04-30T22:21:31.770Z,51.10
2018-04-30T22:24:04.851Z,51.00
2018-04-30T22:26:37.741Z,51.00
2018-04-30T22:29:10.508Z,51.40
2018-04-30T22:31:43.383Z,50.40
2018-04-30T22:34:16.783Z,50.40
2018-04-30T22:36:49.819Z,50.90
2018-04-30T22:39:22.493Z,51.70
2018-04-30T22:41:55.228Z,51.80
2018-04-30T22:44:28.213Z,51.30
2018-04-30T22:47:01.304Z,51.60
2018-04-30T22:49:33.993Z,52.00
2018-04-30T22:52:07.345Z,51.30
2018-04-30T22:54:40.166Z,51.70
2018-04-30T22:57:13.458Z,51.80
2018-04-30T22:59:46.453Z,51.00
2018-04-30T23:02:19.537Z,51.20
2018-04-30T23:04:52.264Z,51.30
2018-04-30T23:07:24.870Z,51.00
2018-04-30T23:09:57.653Z,51.10
2018-04-30T23:12:30.612Z,50.90
2018-04-30T23:15:04.323Z,50.40
2018-04-30T23:17:37.016Z,50.40
2018-04-30T23:20:09.638Z,50.30
2018-04-30T23:22:42.302Z,50.60
2018-04-30T23:25:14.841Z,50.40
2018-04-30T23:27:47.736Z,50.90
2018-04-30T23:30:20.693Z,49.90
2018-04-30T23:32:53.263Z,50.10
2018-04-30T23:35:26.252Z,50.80
2018-04-30T23:37:59.711Z,50.60
2018-04-30T23:40:32.976Z,50.60
2018-04-30T23:43:05.686Z,50.80
2018-04-30T23:45:38.571Z,50.70
2018-04-30T23:48:12.034Z,50.80
2018-04-30T23:50:44.951Z,50.80
2018-04-30T23:53:17.937Z,51.10
2018-04-30T23:55:55.918Z,51.30
2018-04-30T23:58:28.721Z,51.80
